GWMSD EGCC-EGPF
Flight info
| Callsign | GWMSD |
|---|---|
| Flight time | 0h 52m |
| Altitude | 24000 |
| Route | POL N601 RIBEL DCT ASLIB |
| Aircraft | TBM9/L-SDFGRWY/S |
Departure
| Time | 2026-05-04 20:37 |
|---|---|
| Airport | Manchester Airport (EGCC) |
Arrival
| Time | 2026-05-04 21:30 |
|---|---|
| Airport | Glasgow Airport (EGPF) |
| Time | Latitude | Longitude | Altitude | Speed | Heading |
|---|---|---|---|---|---|
| 2026-05-04 20:37 | 53.35324 | -2.41223 | 3635 ft | 165 kts | 342° |
| 2026-05-04 20:37 | 53.36432 | -2.41794 | 3987 ft | 168 kts | 341° |
| 2026-05-04 20:38 | 53.37552 | -2.42398 | 4353 ft | 170 kts | 340° |
| 2026-05-04 20:38 | 53.38682 | -2.43015 | 4712 ft | 172 kts | 341° |
| 2026-05-04 20:38 | 53.39829 | -2.43640 | 4992 ft | 179 kts | 340° |
| 2026-05-04 20:38 | 53.41078 | -2.44315 | 5002 ft | 197 kts | 341° |
| 2026-05-04 20:39 | 53.42428 | -2.45034 | 5052 ft | 208 kts | 341° |
| 2026-05-04 20:39 | 53.43836 | -2.45792 | 5061 ft | 217 kts | 341° |
| 2026-05-04 20:39 | 53.45304 | -2.46373 | 5067 ft | 224 kts | 355° |
| 2026-05-04 20:39 | 53.46870 | -2.46102 | 5067 ft | 230 kts | 13° |
| 2026-05-04 20:40 | 53.48333 | -2.44957 | 5070 ft | 235 kts | 33° |
| 2026-05-04 20:40 | 53.49625 | -2.43253 | 5078 ft | 236 kts | 37° |
| 2026-05-04 20:40 | 53.50913 | -2.41560 | 5142 ft | 236 kts | 37° |
| 2026-05-04 20:40 | 53.52200 | -2.39864 | 5298 ft | 230 kts | 37° |
| 2026-05-04 20:41 | 53.53425 | -2.38249 | 5702 ft | 218 kts | 37° |
| 2026-05-04 20:41 | 53.54592 | -2.36708 | 6104 ft | 209 kts | 37° |
| 2026-05-04 20:41 | 53.55720 | -2.35215 | 6510 ft | 203 kts | 37° |
| 2026-05-04 20:41 | 53.56817 | -2.33759 | 6887 ft | 198 kts | 36° |
| 2026-05-04 20:42 | 53.57891 | -2.32335 | 7277 ft | 195 kts | 36° |
| 2026-05-04 20:42 | 53.58947 | -2.30934 | 7672 ft | 192 kts | 36° |
| 2026-05-04 20:42 | 53.59986 | -2.29553 | 8072 ft | 189 kts | 36° |
| 2026-05-04 20:42 | 53.61016 | -2.28184 | 8477 ft | 187 kts | 36° |
| 2026-05-04 20:43 | 53.62019 | -2.26849 | 8887 ft | 186 kts | 36° |
| 2026-05-04 20:43 | 53.63030 | -2.25503 | 9295 ft | 184 kts | 36° |
| 2026-05-04 20:43 | 53.64032 | -2.24168 | 9715 ft | 183 kts | 36° |
| 2026-05-04 20:43 | 53.65024 | -2.22846 | 10117 ft | 181 kts | 35° |
| 2026-05-04 20:44 | 53.66007 | -2.21537 | 10495 ft | 180 kts | 36° |
| 2026-05-04 20:44 | 53.66982 | -2.20234 | 10880 ft | 178 kts | 36° |
| 2026-05-04 20:44 | 53.67948 | -2.18945 | 11271 ft | 176 kts | 36° |
| 2026-05-04 20:44 | 53.68905 | -2.17667 | 11664 ft | 175 kts | 36° |
| 2026-05-04 20:45 | 53.69536 | -2.16823 | 11919 ft | 174 kts | 36° |
| 2026-05-04 20:45 | 53.70482 | -2.15559 | 12331 ft | 172 kts | 36° |
| 2026-05-04 20:45 | 53.71418 | -2.14306 | 12740 ft | 170 kts | 36° |
| 2026-05-04 20:45 | 53.72341 | -2.13071 | 13164 ft | 168 kts | 36° |
| 2026-05-04 20:46 | 53.73255 | -2.11851 | 13576 ft | 166 kts | 34° |
| 2026-05-04 20:46 | 53.74271 | -2.11069 | 13979 ft | 159 kts | 6° |
| 2026-05-04 20:46 | 53.75361 | -2.11079 | 14346 ft | 157 kts | 343° |
| 2026-05-04 20:46 | 53.76400 | -2.11731 | 14642 ft | 163 kts | 334° |
| 2026-05-04 20:47 | 53.77477 | -2.12446 | 14941 ft | 170 kts | 335° |
| 2026-05-04 20:47 | 53.78596 | -2.13200 | 15251 ft | 176 kts | 335° |
| 2026-05-04 20:47 | 53.79759 | -2.13989 | 15564 ft | 183 kts | 335° |
| 2026-05-04 20:47 | 53.80948 | -2.14800 | 15873 ft | 190 kts | 335° |
| 2026-05-04 20:48 | 53.82193 | -2.15649 | 16181 ft | 196 kts | 335° |
| 2026-05-04 20:48 | 53.83472 | -2.16521 | 16500 ft | 201 kts | 335° |
| 2026-05-04 20:48 | 53.84787 | -2.17419 | 16816 ft | 206 kts | 335° |
| 2026-05-04 20:48 | 53.86134 | -2.18337 | 17136 ft | 210 kts | 336° |
| 2026-05-04 20:49 | 53.87505 | -2.19274 | 17461 ft | 214 kts | 336° |
| 2026-05-04 20:49 | 53.88897 | -2.20228 | 17780 ft | 218 kts | 336° |
| 2026-05-04 20:49 | 53.90314 | -2.21197 | 18117 ft | 220 kts | 336° |
| 2026-05-04 20:49 | 53.91736 | -2.22172 | 18480 ft | 220 kts | 336° |
| 2026-05-04 20:50 | 53.93160 | -2.23149 | 18819 ft | 221 kts | 336° |
| 2026-05-04 20:50 | 53.94583 | -2.24126 | 19145 ft | 221 kts | 336° |
| 2026-05-04 20:50 | 53.96008 | -2.25105 | 19487 ft | 221 kts | 336° |
| 2026-05-04 20:50 | 53.97434 | -2.26084 | 19839 ft | 221 kts | 336° |
| 2026-05-04 20:51 | 53.98861 | -2.27066 | 20183 ft | 221 kts | 336° |
| 2026-05-04 20:51 | 54.00288 | -2.28049 | 20533 ft | 221 kts | 336° |
| 2026-05-04 20:51 | 54.01711 | -2.29051 | 20889 ft | 221 kts | 333° |
| 2026-05-04 20:51 | 54.03039 | -2.30280 | 21236 ft | 220 kts | 329° |
| 2026-05-04 20:52 | 54.04378 | -2.31548 | 21598 ft | 220 kts | 330° |
| 2026-05-04 20:52 | 54.05722 | -2.32804 | 21975 ft | 220 kts | 330° |
| 2026-05-04 20:52 | 54.07065 | -2.34057 | 22337 ft | 220 kts | 330° |
| 2026-05-04 20:52 | 54.08410 | -2.35316 | 22713 ft | 220 kts | 330° |
| 2026-05-04 20:53 | 54.09751 | -2.36573 | 23090 ft | 220 kts | 331° |
| 2026-05-04 20:53 | 54.11094 | -2.37831 | 23469 ft | 220 kts | 331° |
| 2026-05-04 20:53 | 54.12435 | -2.39090 | 23816 ft | 220 kts | 331° |
| 2026-05-04 20:53 | 54.13783 | -2.40355 | 24047 ft | 225 kts | 331° |
| 2026-05-04 20:54 | 54.15203 | -2.41684 | 24055 ft | 240 kts | 331° |
| 2026-05-04 20:54 | 54.16707 | -2.43091 | 24063 ft | 253 kts | 331° |
| 2026-05-04 20:54 | 54.18260 | -2.44549 | 24063 ft | 263 kts | 331° |
| 2026-05-04 20:54 | 54.19913 | -2.46105 | 24064 ft | 272 kts | 331° |
| 2026-05-04 20:55 | 54.21570 | -2.47666 | 24063 ft | 279 kts | 331° |
| 2026-05-04 20:55 | 54.23288 | -2.49286 | 24064 ft | 284 kts | 331° |
| 2026-05-04 20:55 | 54.25030 | -2.50928 | 24063 ft | 288 kts | 331° |
| 2026-05-04 20:55 | 54.26792 | -2.52596 | 24061 ft | 289 kts | 331° |
| 2026-05-04 20:56 | 54.28557 | -2.54268 | 24059 ft | 290 kts | 331° |
| 2026-05-04 20:56 | 54.30322 | -2.55941 | 24061 ft | 290 kts | 331° |
| 2026-05-04 20:56 | 54.32091 | -2.57618 | 24059 ft | 291 kts | 331° |
| 2026-05-04 20:56 | 54.33862 | -2.59296 | 24059 ft | 291 kts | 331° |
| 2026-05-04 20:57 | 54.35634 | -2.60976 | 24061 ft | 291 kts | 331° |
| 2026-05-04 20:57 | 54.37402 | -2.62659 | 24060 ft | 291 kts | 331° |
| 2026-05-04 20:57 | 54.39174 | -2.64348 | 24051 ft | 291 kts | 331° |
| 2026-05-04 20:57 | 54.40943 | -2.66035 | 24051 ft | 291 kts | 331° |
| 2026-05-04 20:58 | 54.42714 | -2.67726 | 24049 ft | 291 kts | 331° |
| 2026-05-04 20:58 | 54.44484 | -2.69414 | 24048 ft | 290 kts | 331° |
| 2026-05-04 20:58 | 54.46247 | -2.71099 | 24044 ft | 290 kts | 331° |
| 2026-05-04 20:58 | 54.48008 | -2.72785 | 24050 ft | 289 kts | 330° |
| 2026-05-04 20:59 | 54.49764 | -2.74468 | 24049 ft | 289 kts | 330° |
| 2026-05-04 20:59 | 54.51492 | -2.76127 | 24046 ft | 288 kts | 330° |
| 2026-05-04 20:59 | 54.53243 | -2.77809 | 24051 ft | 288 kts | 330° |
| 2026-05-04 20:59 | 54.54991 | -2.79488 | 24049 ft | 287 kts | 330° |
| 2026-05-04 21:00 | 54.56737 | -2.81163 | 24052 ft | 287 kts | 330° |
| 2026-05-04 21:00 | 54.58482 | -2.82841 | 24047 ft | 287 kts | 330° |
| 2026-05-04 21:00 | 54.60224 | -2.84523 | 24047 ft | 287 kts | 330° |
| 2026-05-04 21:00 | 54.61970 | -2.86211 | 24051 ft | 287 kts | 330° |
| 2026-05-04 21:01 | 54.63716 | -2.87897 | 24058 ft | 287 kts | 330° |
| 2026-05-04 21:01 | 54.65462 | -2.89583 | 24057 ft | 287 kts | 330° |
| 2026-05-04 21:01 | 54.67208 | -2.91272 | 24057 ft | 287 kts | 330° |
| 2026-05-04 21:01 | 54.68931 | -2.92939 | 24052 ft | 287 kts | 330° |
| 2026-05-04 21:02 | 54.70672 | -2.94627 | 24054 ft | 287 kts | 330° |
| 2026-05-04 21:02 | 54.72415 | -2.96319 | 24061 ft | 287 kts | 328° |
| 2026-05-04 21:02 | 54.74157 | -2.98009 | 24061 ft | 287 kts | 328° |
| 2026-05-04 21:02 | 54.75902 | -2.99705 | 24060 ft | 287 kts | 328° |
| 2026-05-04 21:03 | 54.77644 | -3.01402 | 24058 ft | 287 kts | 328° |
| 2026-05-04 21:03 | 54.79380 | -3.03092 | 24059 ft | 286 kts | 328° |
| 2026-05-04 21:03 | 54.81112 | -3.04780 | 24065 ft | 285 kts | 328° |
| 2026-05-04 21:03 | 54.82832 | -3.06459 | 24058 ft | 283 kts | 328° |
| 2026-05-04 21:04 | 54.84523 | -3.08112 | 24057 ft | 281 kts | 328° |
| 2026-05-04 21:04 | 54.86216 | -3.09770 | 24054 ft | 278 kts | 328° |
| 2026-05-04 21:04 | 54.87892 | -3.11413 | 24052 ft | 276 kts | 328° |
| 2026-05-04 21:04 | 54.89553 | -3.13042 | 24051 ft | 273 kts | 328° |
| 2026-05-04 21:05 | 54.91204 | -3.14663 | 24053 ft | 272 kts | 328° |
| 2026-05-04 21:05 | 54.92847 | -3.16277 | 24053 ft | 270 kts | 328° |
| 2026-05-04 21:05 | 54.94482 | -3.17885 | 24001 ft | 271 kts | 328° |
| 2026-05-04 21:05 | 54.96142 | -3.19516 | 23810 ft | 277 kts | 328° |
| 2026-05-04 21:06 | 54.97838 | -3.21185 | 23553 ft | 282 kts | 327° |
| 2026-05-04 21:06 | 54.99555 | -3.22876 | 23254 ft | 285 kts | 327° |
| 2026-05-04 21:06 | 55.01282 | -3.24580 | 22970 ft | 286 kts | 327° |
| 2026-05-04 21:06 | 55.03013 | -3.26288 | 22688 ft | 285 kts | 327° |
| 2026-05-04 21:07 | 55.04735 | -3.27990 | 22413 ft | 283 kts | 327° |
| 2026-05-04 21:07 | 55.06436 | -3.29677 | 22133 ft | 280 kts | 327° |
| 2026-05-04 21:07 | 55.08097 | -3.31326 | 21867 ft | 277 kts | 327° |
| 2026-05-04 21:07 | 55.09771 | -3.32985 | 21599 ft | 276 kts | 327° |
| 2026-05-04 21:08 | 55.11437 | -3.34637 | 21333 ft | 274 kts | 327° |
| 2026-05-04 21:08 | 55.13114 | -3.36305 | 21063 ft | 273 kts | 327° |
| 2026-05-04 21:08 | 55.14740 | -3.37923 | 20804 ft | 272 kts | 327° |
| 2026-05-04 21:08 | 55.16386 | -3.39558 | 20540 ft | 272 kts | 327° |
| 2026-05-04 21:09 | 55.18021 | -3.41185 | 20279 ft | 269 kts | 327° |
| 2026-05-04 21:09 | 55.19634 | -3.42797 | 20018 ft | 266 kts | 327° |
| 2026-05-04 21:09 | 55.21254 | -3.44416 | 19593 ft | 270 kts | 327° |
| 2026-05-04 21:09 | 55.22893 | -3.46047 | 19175 ft | 271 kts | 327° |
| 2026-05-04 21:10 | 55.24514 | -3.47665 | 18751 ft | 266 kts | 327° |
| 2026-05-04 21:10 | 55.26111 | -3.49269 | 18340 ft | 262 kts | 327° |
| 2026-05-04 21:10 | 55.27681 | -3.50850 | 17911 ft | 258 kts | 327° |
| 2026-05-04 21:10 | 55.29230 | -3.52404 | 17510 ft | 255 kts | 327° |
| 2026-05-04 21:11 | 55.30762 | -3.53938 | 17125 ft | 252 kts | 327° |
| 2026-05-04 21:11 | 55.32274 | -3.55456 | 16738 ft | 250 kts | 327° |
| 2026-05-04 21:11 | 55.33776 | -3.56966 | 16353 ft | 248 kts | 327° |
| 2026-05-04 21:11 | 55.35247 | -3.58448 | 15977 ft | 246 kts | 327° |
| 2026-05-04 21:12 | 55.36732 | -3.59943 | 15598 ft | 246 kts | 327° |
| 2026-05-04 21:12 | 55.38211 | -3.61431 | 15221 ft | 245 kts | 327° |
| 2026-05-04 21:12 | 55.39686 | -3.62921 | 14845 ft | 244 kts | 327° |
| 2026-05-04 21:12 | 55.41174 | -3.64425 | 14460 ft | 243 kts | 327° |
| 2026-05-04 21:13 | 55.42614 | -3.65880 | 14097 ft | 242 kts | 327° |
| 2026-05-04 21:13 | 55.44071 | -3.67352 | 13708 ft | 240 kts | 327° |
| 2026-05-04 21:13 | 55.45513 | -3.68813 | 13327 ft | 238 kts | 327° |
| 2026-05-04 21:13 | 55.46944 | -3.70264 | 12976 ft | 236 kts | 327° |
| 2026-05-04 21:14 | 55.48366 | -3.71704 | 12595 ft | 234 kts | 327° |
| 2026-05-04 21:14 | 55.49773 | -3.73132 | 12233 ft | 232 kts | 327° |
| 2026-05-04 21:14 | 55.51169 | -3.74549 | 11877 ft | 230 kts | 327° |
| 2026-05-04 21:14 | 55.52555 | -3.75962 | 11519 ft | 229 kts | 327° |
| 2026-05-04 21:15 | 55.53935 | -3.77363 | 11168 ft | 228 kts | 327° |
| 2026-05-04 21:15 | 55.55310 | -3.78766 | 10816 ft | 227 kts | 327° |
| 2026-05-04 21:15 | 55.56678 | -3.80159 | 10466 ft | 227 kts | 327° |
| 2026-05-04 21:15 | 55.58041 | -3.81551 | 10116 ft | 226 kts | 327° |
| 2026-05-04 21:16 | 55.59399 | -3.82937 | 9755 ft | 225 kts | 327° |
| 2026-05-04 21:16 | 55.60747 | -3.84316 | 9403 ft | 223 kts | 327° |
| 2026-05-04 21:16 | 55.62066 | -3.85666 | 9055 ft | 221 kts | 328° |
| 2026-05-04 21:16 | 55.63394 | -3.87026 | 8713 ft | 220 kts | 328° |
| 2026-05-04 21:17 | 55.64715 | -3.88377 | 8377 ft | 219 kts | 328° |
| 2026-05-04 21:17 | 55.66028 | -3.89724 | 8040 ft | 217 kts | 328° |
| 2026-05-04 21:17 | 55.67331 | -3.91061 | 7706 ft | 216 kts | 328° |
| 2026-05-04 21:17 | 55.68624 | -3.92398 | 7368 ft | 215 kts | 328° |
| 2026-05-04 21:18 | 55.69906 | -3.93744 | 7077 ft | 213 kts | 328° |
| 2026-05-04 21:18 | 55.71136 | -3.95049 | 7053 ft | 200 kts | 327° |
| 2026-05-04 21:18 | 55.72309 | -3.96296 | 7050 ft | 193 kts | 327° |
| 2026-05-04 21:18 | 55.73461 | -3.97520 | 6907 ft | 197 kts | 327° |
| 2026-05-04 21:19 | 55.74749 | -3.98568 | 6672 ft | 211 kts | 346° |
| 2026-05-04 21:19 | 55.76236 | -3.98845 | 6443 ft | 218 kts | 354° |
| 2026-05-04 21:19 | 55.77764 | -3.99008 | 6188 ft | 221 kts | 354° |
| 2026-05-04 21:19 | 55.79305 | -3.99163 | 5930 ft | 223 kts | 354° |
| 2026-05-04 21:20 | 55.80854 | -3.99319 | 5670 ft | 223 kts | 355° |
| 2026-05-04 21:20 | 55.82405 | -3.99477 | 5414 ft | 223 kts | 355° |
| 2026-05-04 21:20 | 55.83934 | -3.99633 | 5159 ft | 223 kts | 354° |
| 2026-05-04 21:20 | 55.85486 | -3.99797 | 5059 ft | 216 kts | 354° |
| 2026-05-04 21:21 | 55.86958 | -3.99956 | 5056 ft | 208 kts | 354° |
| 2026-05-04 21:21 | 55.88363 | -4.00104 | 5039 ft | 203 kts | 354° |
| 2026-05-04 21:21 | 55.89797 | -4.00249 | 4781 ft | 209 kts | 354° |
| 2026-05-04 21:21 | 55.91261 | -4.00398 | 4519 ft | 212 kts | 355° |
| 2026-05-04 21:22 | 55.92744 | -4.00554 | 4258 ft | 213 kts | 354° |
| 2026-05-04 21:22 | 55.94228 | -4.00703 | 3991 ft | 214 kts | 354° |
| 2026-05-04 21:22 | 55.95716 | -4.00851 | 3734 ft | 213 kts | 354° |
| 2026-05-04 21:22 | 55.97195 | -4.00994 | 3481 ft | 213 kts | 354° |
| 2026-05-04 21:23 | 55.98621 | -4.01502 | 3203 ft | 209 kts | 332° |
| 2026-05-04 21:23 | 55.99626 | -4.03279 | 2950 ft | 204 kts | 297° |
| 2026-05-04 21:23 | 55.99964 | -4.05659 | 2942 ft | 194 kts | 280° |
| 2026-05-04 21:23 | 56.00141 | -4.08006 | 2946 ft | 187 kts | 279° |
| 2026-05-04 21:24 | 56.00306 | -4.10295 | 2946 ft | 184 kts | 279° |
| 2026-05-04 21:24 | 56.00467 | -4.12559 | 2947 ft | 183 kts | 279° |
| 2026-05-04 21:24 | 56.00631 | -4.14821 | 2906 ft | 185 kts | 279° |
| 2026-05-04 21:24 | 56.00549 | -4.17102 | 2893 ft | 189 kts | 254° |
| 2026-05-04 21:25 | 56.00043 | -4.18903 | 2897 ft | 191 kts | 242° |
| 2026-05-04 21:25 | 55.99203 | -4.20764 | 2899 ft | 194 kts | 232° |
| 2026-05-04 21:25 | 55.98285 | -4.22548 | 2898 ft | 195 kts | 231° |
| 2026-05-04 21:25 | 55.97343 | -4.24298 | 2806 ft | 199 kts | 231° |
| 2026-05-04 21:26 | 55.96399 | -4.26086 | 2561 ft | 193 kts | 232° |
| 2026-05-04 21:26 | 55.95494 | -4.27770 | 2297 ft | 182 kts | 231° |
| 2026-05-04 21:26 | 55.94651 | -4.29350 | 2056 ft | 167 kts | 231° |
| 2026-05-04 21:26 | 55.93886 | -4.30788 | 1837 ft | 154 kts | 232° |
| 2026-05-04 21:27 | 55.93166 | -4.32139 | 1629 ft | 147 kts | 232° |
| 2026-05-04 21:27 | 55.92473 | -4.33442 | 1427 ft | 143 kts | 230° |
| 2026-05-04 21:27 | 55.91836 | -4.34637 | 1239 ft | 140 kts | 230° |
| 2026-05-04 21:27 | 55.91210 | -4.35802 | 1077 ft | 118 kts | 230° |
| 2026-05-04 21:28 | 55.90663 | -4.36829 | 904 ft | 112 kts | 230° |
| 2026-05-04 21:28 | 55.90125 | -4.37837 | 740 ft | 112 kts | 228° |
| 2026-05-04 21:28 | 55.89600 | -4.38818 | 588 ft | 109 kts | 228° |
| 2026-05-04 21:28 | 55.89073 | -4.39806 | 436 ft | 110 kts | 228° |
| 2026-05-04 21:29 | 55.88551 | -4.40785 | 284 ft | 105 kts | 227° |
| 2026-05-04 21:29 | 55.88082 | -4.41672 | 125 ft | 92 kts | 229° |
| 2026-05-04 21:29 | 55.87674 | -4.42436 | 29 ft | 78 kts | 229° |
| 2026-05-04 21:29 | 55.87357 | -4.43041 | 24 ft | 55 kts | 229° |
| 2026-05-04 21:30 | 55.87122 | -4.43464 | 24 ft | 38 kts | 227° |
| 2026-05-04 21:30 | 55.86977 | -4.43649 | 24 ft | 21 kts | 205° |
| 2026-05-04 21:30 | 55.86856 | -4.43729 | 24 ft | 14 kts | 198° |
| 2026-05-04 21:30 | 55.86773 | -4.43775 | 24 ft | 11 kts | 180° |
| 2026-05-04 21:31 | 55.86768 | -4.43525 | 24 ft | 13 kts | 74° |
| 2026-05-04 21:31 | 55.86794 | -4.43366 | 26 ft | 14 kts | 74° |
| 2026-05-04 21:31 | 55.86823 | -4.43191 | 26 ft | 16 kts | 72° |
| 2026-05-04 21:32 | 55.86856 | -4.42994 | 24 ft | 15 kts | 61° |
| 2026-05-04 21:32 | 55.86946 | -4.42897 | 24 ft | 16 kts | 27° |
| 2026-05-04 21:32 | 55.87015 | -4.42842 | 25 ft | 14 kts | 22° |
| 2026-05-04 21:32 | 55.87043 | -4.42778 | 24 ft | 7 kts | 95° |
| 2026-05-04 21:33 | 55.87029 | -4.42696 | 25 ft | 5 kts | 102° |
| 2026-05-04 21:33 | 55.87029 | -4.42642 | 24 ft | 4 kts | 41° |
| 2026-05-04 21:33 | 55.87043 | -4.42633 | 25 ft | 1 kts | 25° |
| 2026-05-04 21:33 | 55.87046 | -4.42618 | 25 ft | 0 kts | 135° |
| 2026-05-04 21:34 | 55.87045 | -4.42616 | 25 ft | 0 kts | 135° |
| 2026-05-04 21:37 | 55.87045 | -4.42617 | 25 ft | 0 kts | 135° |